Time;durP1;ratioP1;P1;durP2;ratioP2;P2;SDS_P1;SDS_P2;PMS_P1;PMS_P2;Temp;Humidity;BMP_temperature;BMP_pressure;BME280_temperature;BME280_humidity;BME280_pressure;Samples;Min_cycle;Max_cycle;Signal;HPM_P1;HPM_P2
2022/12/20 00:16:13;;;;;;;3.20;2.30;;;;;;;;;;6258963;22;20113;-61
2022/12/20 00:18:47;;;;;;;3.97;1.90;;;;;;;;;;6269643;22;20484;-61
2022/12/20 00:21:21;;;;;;;2.67;2.10;;;;;;;;;;6268579;22;20019;-61
2022/12/20 00:23:48;;;;;;;4.00;2.33;;;;;;;;;;6268282;22;20098;-61
2022/12/20 00:26:18;;;;;;;3.03;2.20;;;;;;;;;;6269250;22;20019;-61
2022/12/20 00:28:52;;;;;;;2.17;1.98;;;;;;;;;;6268160;22;20487;-62
2022/12/20 00:31:20;;;;;;;2.95;2.08;;;;;;;;;;6267656;22;20102;-47
2022/12/20 00:33:48;;;;;;;2.70;1.90;;;;;;;;;;6269254;22;20019;-61
2022/12/20 00:36:23;;;;;;;3.78;2.40;;;;;;;;;;6268109;22;20094;-61
2022/12/20 00:38:52;;;;;;;2.67;2.13;;;;;;;;;;6268218;22;20095;-61
2022/12/20 00:41:29;;;;;;;2.38;2.13;;;;;;;;;;6269677;22;20102;-62
2022/12/20 00:43:57;;;;;;;2.33;1.80;;;;;;;;;;6268776;22;20030;-61
2022/12/20 00:46:24;;;;;;;2.90;2.17;;;;;;;;;;6269078;22;20107;-61
2022/12/20 00:48:58;;;;;;;2.30;2.10;;;;;;;;;;6267752;22;20526;-58
2022/12/20 00:51:27;;;;;;;2.33;1.60;;;;;;;;;;6268642;22;20098;-62
2022/12/20 00:54:00;;;;;;;3.08;1.95;;;;;;;;;;6268388;22;20020;-47
2022/12/20 00:56:27;;;;;;;1.73;1.58;;;;;;;;;;6268380;22;20030;-47
2022/12/20 00:58:54;;;;;;;2.40;1.70;;;;;;;;;;6269237;22;20058;-51
2022/12/20 01:01:29;;;;;;;2.35;1.73;;;;;;;;;;6267976;22;20026;-49
2022/12/20 01:03:57;;;;;;;2.28;1.52;;;;;;;;;;6268910;22;20023;-47
2022/12/20 01:06:30;;;;;;;1.60;1.50;;;;;;;;;;6267601;22;20095;-49
2022/12/20 01:08:58;;;;;;;1.88;1.60;;;;;;;;;;6240832;22;20363;-61
2022/12/20 01:11:33;;;;;;;1.90;1.58;;;;;;;;;;6266196;22;20090;-61
2022/12/20 01:14:02;;;;;;;1.75;1.65;;;;;;;;;;6268621;22;20035;-60
2022/12/20 01:16:31;;;;;;;2.17;1.65;;;;;;;;;;6265674;22;20093;-61
2022/12/20 01:19:14;;;;;;;1.92;1.42;;;;;;;;;;6268337;22;20089;-61
2022/12/20 01:21:43;;;;;;;1.40;1.30;;;;;;;;;;6269558;22;20027;-61
2022/12/20 01:24:18;;;;;;;1.40;1.20;;;;;;;;;;6268428;22;20054;-60
2022/12/20 01:26:46;;;;;;;1.20;1.10;;;;;;;;;;6267218;22;20024;-62
2022/12/20 01:29:13;;;;;;;1.40;1.27;;;;;;;;;;6267906;22;20087;-61
2022/12/20 01:31:46;;;;;;;1.42;1.33;;;;;;;;;;6267624;22;20487;-60
2022/12/20 01:34:14;;;;;;;2.67;1.77;;;;;;;;;;6267112;22;20102;-60
2022/12/20 01:36:48;;;;;;;2.85;1.73;;;;;;;;;;6242931;22;20062;-60
2022/12/20 01:39:16;;;;;;;2.55;1.75;;;;;;;;;;6267884;22;20020;-61
2022/12/20 01:41:44;;;;;;;1.60;1.30;;;;;;;;;;6271050;22;20118;-60
2022/12/20 01:44:17;;;;;;;4.75;1.95;;;;;;;;;;6271733;22;20098;-60
2022/12/20 01:46:45;;;;;;;3.20;2.17;;;;;;;;;;6271145;22;20055;-59
2022/12/20 01:49:22;;;;;;;2.40;1.70;;;;;;;;;;6270574;22;20027;-52
2022/12/20 01:51:57;;;;;;;3.13;1.90;;;;;;;;;;6271076;22;20040;-47
2022/12/20 01:54:33;;;;;;;4.13;1.65;;;;;;;;;;6270375;22;20069;-47
2022/12/20 01:57:02;;;;;;;4.47;2.33;;;;;;;;;;6269690;22;20057;-51
2022/12/20 01:59:29;;;;;;;2.85;1.98;;;;;;;;;;6270518;22;20106;-48
2022/12/20 02:02:06;;;;;;;4.10;2.17;;;;;;;;;;6268696;22;20098;-46
2022/12/20 02:04:33;;;;;;;3.83;2.70;;;;;;;;;;6270299;22;20085;-62
2022/12/20 02:07:08;;;;;;;4.43;2.33;;;;;;;;;;6269417;22;20081;-63
2022/12/20 02:09:35;;;;;;;;;;;;;;;;;;6270721;22;20098;-62
2022/12/20 02:12:10;;;;;;;4.65;2.25;;;;;;;;;;6268388;22;19919;-62
2022/12/20 02:14:48;;;;;;;7.47;2.83;;;;;;;;;;6270116;22;20028;-62
2022/12/20 02:17:36;;;;;;;5.18;2.72;;;;;;;;;;6268668;22;20029;-62
2022/12/20 02:20:19;;;;;;;8.00;3.35;;;;;;;;;;6269502;22;20543;-61
2022/12/20 02:22:52;;;;;;;6.55;3.00;;;;;;;;;;6270105;22;20102;-48
2022/12/20 02:25:26;;;;;;;4.68;2.85;;;;;;;;;;6269763;22;20024;-61
2022/12/20 02:28:12;;;;;;;4.35;2.63;;;;;;;;;;6270035;22;20066;-61
2022/12/20 02:30:47;;;;;;;6.72;3.30;;;;;;;;;;6269948;22;20106;-61
2022/12/20 02:33:14;;;;;;;7.32;2.42;;;;;;;;;;6267773;22;20099;-61
2022/12/20 02:35:42;;;;;;;4.18;2.60;;;;;;;;;;6268245;22;20027;-61
2022/12/20 02:38:31;;;;;;;5.10;2.70;;;;;;;;;;6243205;22;20106;-61
2022/12/20 02:41:02;;;;;;;6.07;2.80;;;;;;;;;;6269049;22;20468;-61
2022/12/20 02:46:23;;;;;;;4.43;2.60;;;;;;;;;;6270453;22;20106;-59
2022/12/20 02:48:59;;;;;;;5.07;3.10;;;;;;;;;;6270447;22;20353;-60
2022/12/20 02:51:28;;;;;;;5.47;2.70;;;;;;;;;;6270075;22;20051;-58
2022/12/20 02:54:01;;;;;;;3.97;2.70;;;;;;;;;;6244191;22;20032;-59
2022/12/20 02:56:34;;;;;;;4.38;2.63;;;;;;;;;;6270654;22;20095;-60
2022/12/20 02:59:14;;;;;;;4.22;2.88;;;;;;;;;;6268983;22;20102;-62
2022/12/20 03:01:44;;;;;;;4.50;2.63;;;;;;;;;;6267543;22;21218;-61
2022/12/20 03:04:20;;;;;;;3.30;2.58;;;;;;;;;;6266085;22;20027;-61
2022/12/20 03:07:08;;;;;;;3.70;2.47;;;;;;;;;;6268075;22;20523;-61
2022/12/20 03:09:43;;;;;;;4.22;2.78;;;;;;;;;;6269390;22;20028;-61
2022/12/20 03:12:11;;;;;;;4.40;2.50;;;;;;;;;;6266561;22;20051;-60
2022/12/20 03:14:39;;;;;;;6.80;3.00;;;;;;;;;;6268626;22;20103;-61
2022/12/20 03:17:25;;;;;;;4.50;3.17;;;;;;;;;;6266570;22;20058;-61
2022/12/20 03:19:59;;;;;;;5.03;3.22;;;;;;;;;;6269471;22;20099;-63
2022/12/20 03:22:34;;;;;;;2.92;2.38;;;;;;;;;;6269369;22;20106;-63
2022/12/20 03:25:01;;;;;;;;;;;;;;;;;;6270168;22;20099;-63
2022/12/20 03:27:28;;;;;;;5.63;2.72;;;;;;;;;;6269493;22;19919;-63
2022/12/20 03:30:03;;;;;;;3.67;2.75;;;;;;;;;;6270085;22;20037;-63
2022/12/20 03:32:30;;;;;;;3.58;2.47;;;;;;;;;;6269397;22;20022;-63
2022/12/20 03:35:04;;;;;;;4.53;2.80;;;;;;;;;;6268971;22;20102;-60
2022/12/20 03:37:31;;;;;;;5.25;2.75;;;;;;;;;;6269615;22;20028;-50
2022/12/20 03:39:58;;;;;;;8.23;3.55;;;;;;;;;;6270128;22;20385;-54
2022/12/20 03:42:32;;;;;;;6.45;3.38;;;;;;;;;;6268641;22;20481;-54
2022/12/20 03:44:59;;;;;;;6.93;3.75;;;;;;;;;;6268071;22;20747;-55
2022/12/20 03:47:26;;;;;;;4.38;3.30;;;;;;;;;;6267853;22;20122;-55
2022/12/20 03:50:00;;;;;;;5.63;3.22;;;;;;;;;;6269874;22;20539;-55
2022/12/20 03:52:27;;;;;;;7.90;3.42;;;;;;;;;;6268714;22;20024;-61
2022/12/20 03:54:54;;;;;;;6.25;2.72;;;;;;;;;;6269422;22;20035;-62
2022/12/20 03:57:28;;;;;;;7.43;3.17;;;;;;;;;;6270026;22;20030;-64
2022/12/20 03:59:55;;;;;;;5.95;3.63;;;;;;;;;;6269386;22;20103;-63
2022/12/20 04:02:29;;;;;;;5.68;3.45;;;;;;;;;;6267754;22;20095;-63
2022/12/20 04:04:56;;;;;;;7.97;4.50;;;;;;;;;;6269269;22;20396;-63
2022/12/20 04:07:24;;;;;;;5.75;3.38;;;;;;;;;;6269398;22;20055;-63
2022/12/20 04:09:57;;;;;;;4.95;3.03;;;;;;;;;;6268728;22;20394;-63
2022/12/20 04:12:24;;;;;;;4.78;3.22;;;;;;;;;;6269459;22;20022;-60
2022/12/20 04:14:58;;;;;;;6.25;3.15;;;;;;;;;;6269050;22;20102;-63
2022/12/20 04:17:38;;;;;;;6.18;2.97;;;;;;;;;;6269070;22;20508;-62
2022/12/20 04:20:20;;;;;;;5.22;3.30;;;;;;;;;;6269437;22;20091;-62
2022/12/20 04:22:48;;;;;;;8.32;4.00;;;;;;;;;;6270211;22;20055;-62
2022/12/20 04:25:21;;;;;;;7.50;4.32;;;;;;;;;;6268689;22;20508;-62
2022/12/20 04:27:48;;;;;;;7.57;4.30;;;;;;;;;;6268915;22;20059;-63
2022/12/20 04:30:15;;;;;;;8.30;4.07;;;;;;;;;;6269289;22;20107;-60
2022/12/20 04:32:53;;;;;;;6.05;3.85;;;;;;;;;;6267840;22;20094;-58
2022/12/20 04:35:20;;;;;;;8.18;4.60;;;;;;;;;;6270223;22;20024;-58
2022/12/20 04:38:01;;;;;;;7.57;3.70;;;;;;;;;;6268115;22;20062;-57
2022/12/20 04:40:34;;;;;;;5.57;3.60;;;;;;;;;;6270029;22;20487;-57
2022/12/20 04:43:08;;;;;;;8.98;4.78;;;;;;;;;;6268416;22;20066;-60
2022/12/20 04:45:35;;;;;;;12.90;5.43;;;;;;;;;;6268572;22;20123;-59
2022/12/20 04:48:03;;;;;;;14.65;6.75;;;;;;;;;;6269021;22;20098;-63
2022/12/20 04:50:56;;;;;;;14.55;6.10;;;;;;;;;;6268458;22;20125;-63
2022/12/20 04:56:17;;;;;;;25.38;8.73;;;;;;;;;;6268908;22;20066;-63
2022/12/20 04:58:46;;;;;;;69.70;10.85;;;;;;;;;;6268599;22;20465;-62
2022/12/20 05:01:13;;;;;;;168.02;14.73;;;;;;;;;;6266628;22;20103;-62
2022/12/20 05:03:47;;;;;;;91.32;12.15;;;;;;;;;;6268403;22;20400;-62
2022/12/20 05:06:14;;;;;;;49.60;12.30;;;;;;;;;;6269756;22;20016;-61
2022/12/20 05:08:48;;;;;;;149.07;17.67;;;;;;;;;;6269898;22;20051;-62
2022/12/20 05:11:16;;;;;;;123.25;13.57;;;;;;;;;;6267347;22;20023;-62
2022/12/20 05:13:43;;;;;;;78.07;16.42;;;;;;;;;;6268888;22;20416;-61
2022/12/20 05:16:16;;;;;;;533.15;36.65;;;;;;;;;;6271813;22;20019;-62
2022/12/20 05:18:50;;;;;;;191.73;21.25;;;;;;;;;;6267038;22;20026;-62
2022/12/20 05:27:01;;;;;;;24.15;10.15;;;;;;;;;;6266693;22;20055;-58
2022/12/20 05:29:28;;;;;;;34.70;11.93;;;;;;;;;;6268224;22;20028;-62
2022/12/20 05:32:02;;;;;;;27.50;11.65;;;;;;;;;;6269351;22;20143;-62
2022/12/20 05:34:29;;;;;;;87.60;17.30;;;;;;;;;;6266165;22;20503;-62
2022/12/20 05:36:56;;;;;;;44.90;15.25;;;;;;;;;;6267768;22;20461;-62
2022/12/20 05:39:30;;;;;;;69.18;14.73;;;;;;;;;;6265229;22;20494;-62
2022/12/20 05:41:58;;;;;;;36.15;12.93;;;;;;;;;;6265017;22;20450;-61
2022/12/20 05:44:31;;;;;;;29.65;11.90;;;;;;;;;;6267722;22;20106;-58
2022/12/20 05:46:59;;;;;;;34.10;13.65;;;;;;;;;;6266658;22;20094;-61
2022/12/20 05:49:26;;;;;;;39.25;13.07;;;;;;;;;;6268522;22;20028;-61
2022/12/20 05:52:01;;;;;;;38.95;14.40;;;;;;;;;;6267498;22;20047;-61
2022/12/20 05:54:28;;;;;;;35.53;14.23;;;;;;;;;;6268276;22;20115;-61
2022/12/20 05:57:01;;;;;;;54.75;16.48;;;;;;;;;;6269385;22;20019;-62
2022/12/20 05:59:28;;;;;;;46.08;17.17;;;;;;;;;;6270544;22;20097;-61
2022/12/20 06:02:02;;;;;;;137.88;26.30;;;;;;;;;;6270537;22;20055;-62
2022/12/20 06:04:31;;;;;;;118.03;23.48;;;;;;;;;;6270245;22;20551;-61
2022/12/20 06:07:01;;;;;;;193.15;28.83;;;;;;;;;;6270178;22;20023;-61
2022/12/20 06:09:34;;;;;;;329.10;35.95;;;;;;;;;;6270051;22;20051;-61
2022/12/20 06:12:01;;;;;;;441.02;40.90;;;;;;;;;;6270075;22;20089;-61
2022/12/20 06:14:35;;;;;;;707.15;54.97;;;;;;;;;;6270950;22;20479;-61
2022/12/20 06:17:10;;;;;;;893.90;65.93;;;;;;;;;;6269819;22;20031;-61
2022/12/20 06:19:51;;;;;;;900.70;69.28;;;;;;;;;;6238627;23;20516;-49
2022/12/20 06:22:18;;;;;;;1231.28;87.28;;;;;;;;;;6240855;23;20031;-62
2022/12/20 06:24:52;;;;;;;1446.85;95.32;;;;;;;;;;6239772;23;20024;-60
2022/12/20 06:27:21;;;;;;;1526.22;95.30;;;;;;;;;;6239704;23;20104;-60
2022/12/20 06:29:53;;;;;;;714.75;58.13;;;;;;;;;;6240235;23;20020;-58
2022/12/20 06:32:26;;;;;;;1690.88;115.32;;;;;;;;;;6240928;23;20651;-57
2022/12/20 06:34:53;;;;;;;1960.07;124.13;;;;;;;;;;6238986;23;20102;-59
2022/12/20 06:37:27;;;;;;;1535.57;100.68;;;;;;;;;;6240604;23;20094;-58
2022/12/20 06:39:54;;;;;;;1998.00;129.50;;;;;;;;;;6240024;23;20099;-62
2022/12/20 06:42:21;;;;;;;1496.18;100.53;;;;;;;;;;6238882;23;20553;-54
2022/12/20 06:44:55;;;;;;;1936.65;119.18;;;;;;;;;;6240503;23;20095;-60
2022/12/20 06:47:22;;;;;;;1456.47;99.22;;;;;;;;;;6240556;23;20032;-61
2022/12/20 06:49:56;;;;;;;1530.28;106.57;;;;;;;;;;6240221;23;20050;-56
2022/12/20 06:52:24;;;;;;;1301.53;92.15;;;;;;;;;;6240014;23;20103;-60
2022/12/20 06:54:52;;;;;;;1377.05;94.72;;;;;;;;;;6240276;23;20024;-59
2022/12/20 06:57:25;;;;;;;1429.05;102.18;;;;;;;;;;6240161;23;20044;-62
2022/12/20 06:59:52;;;;;;;1585.68;106.85;;;;;;;;;;6239820;23;20047;-61
2022/12/20 07:02:26;;;;;;;1356.32;88.97;;;;;;;;;;6239226;23;20099;-61
2022/12/20 07:04:54;;;;;;;1220.65;87.25;;;;;;;;;;6239497;23;20326;-61
2022/12/20 07:07:21;;;;;;;996.50;79.00;;;;;;;;;;6240658;23;20465;-61
2022/12/20 07:09:55;;;;;;;1494.80;105.82;;;;;;;;;;6240127;23;20044;-61
2022/12/20 07:12:22;;;;;;;1025.68;73.47;;;;;;;;;;6239589;23;20032;-61
2022/12/20 07:14:56;;;;;;;1045.82;76.80;;;;;;;;;;6240337;23;20099;-63
2022/12/20 07:17:23;;;;;;;1391.93;97.65;;;;;;;;;;6242247;22;20047;-61
2022/12/20 07:20:06;;;;;;;1991.28;135.57;;;;;;;;;;6269637;22;20024;-63
2022/12/20 07:22:39;;;;;;;1656.97;109.85;;;;;;;;;;6268621;22;20027;-62
2022/12/20 07:25:14;;;;;;;1999.90;154.77;;;;;;;;;;6269757;22;20027;-63
2022/12/20 07:27:41;;;;;;;1974.30;121.90;;;;;;;;;;6269120;22;20106;-63
2022/12/20 07:30:09;;;;;;;1999.90;142.93;;;;;;;;;;6269980;22;20085;-62
2022/12/20 07:32:43;;;;;;;1999.90;142.68;;;;;;;;;;6268893;22;20119;-62
2022/12/20 07:35:11;;;;;;;740.30;65.93;;;;;;;;;;6269838;22;20107;-63
2022/12/20 07:37:44;;;;;;;1999.90;158.65;;;;;;;;;;6269172;22;20028;-62
2022/12/20 07:40:13;;;;;;;1868.18;128.57;;;;;;;;;;6270324;22;20023;-62
2022/12/20 07:42:40;;;;;;;1999.90;152.82;;;;;;;;;;6269760;22;20659;-62
2022/12/20 07:45:15;;;;;;;1999.90;136.75;;;;;;;;;;6270850;22;20023;-62
2022/12/20 07:47:42;;;;;;;1649.53;117.45;;;;;;;;;;6270894;22;20066;-62
2022/12/20 07:50:16;;;;;;;1807.75;129.27;;;;;;;;;;6270718;22;20106;-62
2022/12/20 07:52:45;;;;;;;1999.90;144.10;;;;;;;;;;6269985;22;20099;-51
2022/12/20 07:55:14;;;;;;;1981.72;134.55;;;;;;;;;;6268795;22;20540;-61
2022/12/20 07:57:50;;;;;;;1999.90;154.68;;;;;;;;;;6270587;22;20026;-61
2022/12/20 08:00:17;;;;;;;1999.90;176.30;;;;;;;;;;6268763;22;20054;-61
2022/12/20 08:03:08;;;;;;;1634.47;110.90;;;;;;;;;;6270558;22;20016;-61
2022/12/20 08:05:45;;;;;;;1999.90;153.77;;;;;;;;;;6261396;22;20598;-62
2022/12/20 08:08:13;;;;;;;1999.90;138.52;;;;;;;;;;6268571;22;20480;-61
2022/12/20 08:10:40;;;;;;;1999.90;173.10;;;;;;;;;;6269612;22;20359;-62
2022/12/20 08:13:14;;;;;;;1999.90;132.98;;;;;;;;;;6270420;22;20054;-59
2022/12/20 08:15:42;;;;;;;1759.95;115.07;;;;;;;;;;6270877;22;20058;-58
2022/12/20 08:18:28;;;;;;;1746.28;123.25;;;;;;;;;;6269214;22;20019;-57
2022/12/20 08:20:55;;;;;;;1668.38;113.47;;;;;;;;;;6269977;22;20124;-60
2022/12/20 08:23:29;;;;;;;1850.95;121.93;;;;;;;;;;6269784;22;20020;-59
2022/12/20 08:25:59;;;;;;;1815.30;128.52;;;;;;;;;;6270088;22;20047;-56
2022/12/20 08:28:33;;;;;;;1953.30;136.50;;;;;;;;;;6268897;22;20094;-63
2022/12/20 08:31:01;;;;;;;;;;;;;;;;;;6270813;22;20027;-59
2022/12/20 08:33:35;;;;;;;1999.90;137.90;;;;;;;;;;6268622;22;19921;-48
2022/12/20 08:36:04;;;;;;;1999.90;149.93;;;;;;;;;;6268577;22;20686;-48
2022/12/20 08:38:32;;;;;;;1999.90;162.77;;;;;;;;;;6268958;22;20024;-47
2022/12/20 08:41:07;;;;;;;1999.90;157.30;;;;;;;;;;6268247;22;20352;-47
2022/12/20 08:43:34;;;;;;;1994.43;140.38;;;;;;;;;;6269488;22;20047;-46
2022/12/20 08:46:10;;;;;;;1990.15;133.77;;;;;;;;;;6269795;22;20081;-48
2022/12/20 08:48:38;;;;;;;1999.90;136.18;;;;;;;;;;6269974;22;20106;-62
2022/12/20 08:51:05;;;;;;;;;;;;;;;;;;6270515;22;20050;-49
2022/12/20 08:53:40;;;;;;;1999.90;133.77;;;;;;;;;;6269388;22;20002;-49
2022/12/20 08:56:07;;;;;;;1999.90;128.98;;;;;;;;;;6269017;22;20055;-46
2022/12/20 08:58:42;;;;;;;1999.90;147.70;;;;;;;;;;6269325;22;20058;-47
2022/12/20 09:01:10;;;;;;;1999.90;150.98;;;;;;;;;;6267643;22;20015;-53
2022/12/20 09:03:39;;;;;;;1999.90;155.82;;;;;;;;;;6268921;22;20524;-49
2022/12/20 09:06:17;;;;;;;1999.90;142.65;;;;;;;;;;6268745;22;20046;-62
2022/12/20 09:08:44;;;;;;;1999.90;136.45;;;;;;;;;;6268622;22;20047;-51
2022/12/20 09:11:20;;;;;;;1961.00;133.98;;;;;;;;;;6268705;22;20524;-48
2022/12/20 09:13:48;;;;;;;1999.90;148.27;;;;;;;;;;6269632;22;20048;-48
2022/12/20 09:16:17;;;;;;;1640.93;115.03;;;;;;;;;;6269296;22;20024;-47
2022/12/20 09:18:59;;;;;;;1999.90;146.00;;;;;;;;;;6267449;22;20102;-48
2022/12/20 09:21:32;;;;;;;1999.90;137.02;;;;;;;;;;6267310;22;20020;-49
2022/12/20 09:24:05;;;;;;;1999.90;152.25;;;;;;;;;;6267879;22;20023;-60
2022/12/20 09:26:34;;;;;;;1577.57;114.90;;;;;;;;;;6269410;22;20563;-63
2022/12/20 09:29:01;;;;;;;1999.90;145.93;;;;;;;;;;6269560;22;20043;-61
2022/12/20 09:31:35;;;;;;;1999.90;188.15;;;;;;;;;;6268455;22;20055;-60
2022/12/20 09:34:03;;;;;;;;;;;;;;;;;;6269423;22;20066;-61
2022/12/20 09:36:37;;;;;;;1999.90;139.13;;;;;;;;;;6268488;22;19941;-61
2022/12/20 09:39:04;;;;;;;;;;;;;;;;;;6269656;22;20827;-61
2022/12/20 09:41:37;;;;;;;1329.57;103.60;;;;;;;;;;6269277;22;20002;-61
2022/12/20 09:44:18;;;;;;;1610.95;110.80;;;;;;;;;;6268959;22;20408;-58
2022/12/20 09:46:49;;;;;;;1490.28;101.30;;;;;;;;;;6269821;22;20094;-61
2022/12/20 09:49:23;;;;;;;;;;;;;;;;;;6269244;22;20051;-62
2022/12/20 09:51:57;;;;;;;1901.75;123.68;;;;;;;;;;6269508;22;20404;-61
2022/12/20 09:54:38;;;;;;;1999.90;141.77;;;;;;;;;;6243628;22;20103;-62
2022/12/20 09:57:05;;;;;;;1820.95;130.07;;;;;;;;;;6269486;22;20476;-61
2022/12/20 09:59:40;;;;;;;1999.90;153.68;;;;;;;;;;6269255;22;20062;-62
2022/12/20 10:02:19;;;;;;;1579.60;114.07;;;;;;;;;;6271998;22;20109;-53
2022/12/20 10:05:19;;;;;;;1746.10;120.68;;;;;;;;;;6269592;22;20016;-62
2022/12/20 10:07:53;;;;;;;1534.50;109.85;;;;;;;;;;6270318;22;20520;-63
2022/12/20 10:10:36;;;;;;;1999.90;149.20;;;;;;;;;;6271445;22;20023;-62
2022/12/20 10:13:12;;;;;;;1999.90;134.05;;;;;;;;;;6269250;22;20030;-62
2022/12/20 10:15:50;;;;;;;1999.90;157.40;;;;;;;;;;6270428;22;20102;-64
2022/12/20 10:18:33;;;;;;;919.45;83.45;;;;;;;;;;6270444;22;20066;-63
2022/12/20 10:21:37;;;;;;;1998.18;130.48;;;;;;;;;;6269769;22;20552;-61
2022/12/20 10:24:15;;;;;;;1566.57;115.82;;;;;;;;;;6269698;22;20055;-47
2022/12/20 10:26:42;;;;;;;1675.68;110.03;;;;;;;;;;6269596;22;20114;-49
2022/12/20 10:29:17;;;;;;;875.15;64.13;;;;;;;;;;6270484;22;20047;-49
2022/12/20 10:31:44;;;;;;;1475.53;109.82;;;;;;;;;;6270123;22;20023;-47
2022/12/20 10:34:11;;;;;;;1389.07;102.32;;;;;;;;;;6270646;22;20023;-47
2022/12/20 10:36:45;;;;;;;905.33;77.22;;;;;;;;;;6272495;22;20122;-46
2022/12/20 10:39:12;;;;;;;1292.78;97.38;;;;;;;;;;6269266;22;20032;-59
2022/12/20 10:41:39;;;;;;;623.47;51.97;;;;;;;;;;6270979;22;20015;-61
2022/12/20 10:44:23;;;;;;;311.40;40.95;;;;;;;;;;6270553;22;20062;-61
2022/12/20 10:46:52;;;;;;;147.93;32.15;;;;;;;;;;6271054;22;20508;-62
2022/12/20 10:49:29;;;;;;;162.27;35.92;;;;;;;;;;6270234;22;20020;-61
2022/12/20 10:51:58;;;;;;;119.10;30.25;;;;;;;;;;6271930;22;20019;-61
2022/12/20 10:54:39;;;;;;;85.63;25.55;;;;;;;;;;6269745;22;20642;-62
2022/12/20 10:57:18;;;;;;;60.88;22.42;;;;;;;;;;6269821;22;20055;-63
2022/12/20 10:59:49;;;;;;;38.13;17.50;;;;;;;;;;6269849;22;20019;-46
2022/12/20 11:02:38;;;;;;;46.13;19.58;;;;;;;;;;6271668;22;20070;-47
2022/12/20 11:05:11;;;;;;;39.70;17.05;;;;;;;;;;6271389;22;20058;-48
2022/12/20 11:07:53;;;;;;;40.97;17.17;;;;;;;;;;6269691;22;20098;-47
2022/12/20 11:10:41;;;;;;;35.85;15.82;;;;;;;;;;6270738;22;20026;-50
2022/12/20 11:13:22;;;;;;;36.00;16.10;;;;;;;;;;6269248;22;20077;-49
2022/12/20 11:16:00;;;;;;;25.52;12.82;;;;;;;;;;6270143;22;20091;-61
2022/12/20 11:18:46;;;;;;;37.33;16.23;;;;;;;;;;6269029;22;20030;-46
2022/12/20 11:21:14;;;;;;;32.30;15.13;;;;;;;;;;6268511;22;20365;-50
2022/12/20 11:23:58;;;;;;;23.60;12.88;;;;;;;;;;6268784;22;20027;-47
2022/12/20 11:26:48;;;;;;;31.83;13.05;;;;;;;;;;6270264;22;20091;-46
2022/12/20 11:29:29;;;;;;;22.20;11.93;;;;;;;;;;6258700;22;20784;-47
2022/12/20 11:32:11;;;;;;;21.73;12.48;;;;;;;;;;6270318;22;20557;-56
2022/12/20 11:34:50;;;;;;;25.50;11.65;;;;;;;;;;6270026;22;20027;-63
2022/12/20 11:37:25;;;;;;;19.80;11.63;;;;;;;;;;6269072;22;20023;-47
2022/12/20 11:39:58;;;;;;;20.10;11.75;;;;;;;;;;6269067;22;20378;-47
2022/12/20 11:42:41;;;;;;;27.85;13.50;;;;;;;;;;6268735;22;20051;-50
2022/12/20 11:45:14;;;;;;;;;;;;;;;;;;6269833;22;20530;-47
2022/12/20 11:47:50;;;;;;;12.90;7.32;;;;;;;;;;6269605;22;19916;-54
2022/12/20 11:50:47;;;;;;;16.60;8.43;;;;;;;;;;6269368;22;20492;-62
2022/12/20 11:53:14;;;;;;;11.98;8.18;;;;;;;;;;6269867;22;20374;-48
2022/12/20 11:55:48;;;;;;;10.75;6.93;;;;;;;;;;6269613;22;20041;-64
2022/12/20 11:58:25;;;;;;;11.57;7.10;;;;;;;;;;6268824;22;20020;-64
2022/12/20 12:01:14;;;;;;;9.07;6.45;;;;;;;;;;6269177;22;20118;-64
2022/12/20 12:03:43;;;;;;;10.48;6.28;;;;;;;;;;6269620;22;20090;-63
2022/12/20 12:06:28;;;;;;;6.80;5.18;;;;;;;;;;6268544;22;20102;-64
2022/12/20 12:09:10;;;;;;;12.80;7.45;;;;;;;;;;6269518;22;20024;-61
2022/12/20 12:11:50;;;;;;;6.53;4.93;;;;;;;;;;6269247;22;20024;-61
2022/12/20 12:14:45;;;;;;;8.85;5.45;;;;;;;;;;6268569;22;20491;-53
2022/12/20 12:17:27;;;;;;;10.60;5.55;;;;;;;;;;6269090;22;20058;-55
2022/12/20 12:20:20;;;;;;;6.78;4.75;;;;;;;;;;6266900;22;20070;-55
2022/12/20 12:23:01;;;;;;;7.38;5.15;;;;;;;;;;6267699;22;20030;-53
2022/12/20 12:25:28;;;;;;;7.53;4.15;;;;;;;;;;6269570;22;20087;-55
2022/12/20 12:28:03;;;;;;;5.45;3.60;;;;;;;;;;6267952;22;20029;-64
2022/12/20 12:30:38;;;;;;;4.68;3.67;;;;;;;;;;6268684;22;20034;-61
2022/12/20 12:33:15;;;;;;;6.32;3.85;;;;;;;;;;6269836;22;20090;-62
2022/12/20 12:36:05;;;;;;;4.15;3.33;;;;;;;;;;6267884;22;20027;-61
2022/12/20 12:39:06;;;;;;;4.53;3.53;;;;;;;;;;6268632;22;20103;-62
2022/12/20 12:41:54;;;;;;;5.47;3.53;;;;;;;;;;6269579;22;20030;-61
2022/12/20 12:44:32;;;;;;;3.78;2.80;;;;;;;;;;6269004;22;20334;-61
2022/12/20 12:47:02;;;;;;;3.47;2.65;;;;;;;;;;6268484;22;20039;-63
2022/12/20 12:49:35;;;;;;;5.15;2.72;;;;;;;;;;6270203;22;20336;-61
2022/12/20 12:52:03;;;;;;;2.92;2.33;;;;;;;;;;6268679;22;20065;-61
2022/12/20 12:54:42;;;;;;;4.00;2.33;;;;;;;;;;6241873;22;20023;-61
2022/12/20 12:57:16;;;;;;;2.88;2.50;;;;;;;;;;6269484;22;20027;-61
2022/12/20 12:59:51;;;;;;;2.17;1.98;;;;;;;;;;6269408;22;20772;-62
2022/12/20 13:02:19;;;;;;;2.60;2.33;;;;;;;;;;6270031;22;20024;-61
2022/12/20 13:05:01;;;;;;;3.65;2.42;;;;;;;;;;6270035;22;20038;-63
2022/12/20 13:07:34;;;;;;;3.05;2.63;;;;;;;;;;6269613;22;20020;-62
2022/12/20 13:10:13;;;;;;;2.30;2.10;;;;;;;;;;6269494;22;20094;-62
2022/12/20 13:12:41;;;;;;;2.47;1.98;;;;;;;;;;6269241;22;20066;-61
2022/12/20 13:15:20;;;;;;;2.30;2.10;;;;;;;;;;6268304;22;20054;-61
2022/12/20 13:17:47;;;;;;;2.47;1.90;;;;;;;;;;6268786;22;20471;-61
2022/12/20 13:20:29;;;;;;;2.15;1.90;;;;;;;;;;6267852;22;20028;-61
2022/12/20 13:23:06;;;;;;;4.85;2.45;;;;;;;;;;6268687;22;20024;-62
2022/12/20 13:25:52;;;;;;;4.18;2.42;;;;;;;;;;6244147;22;20536;-63
2022/12/20 13:28:22;;;;;;;2.28;1.90;;;;;;;;;;6268941;22;20107;-64
2022/12/20 13:31:03;;;;;;;2.78;2.00;;;;;;;;;;6267205;22;20095;-64
2022/12/20 13:33:41;;;;;;;3.65;2.00;;;;;;;;;;6269111;22;20019;-64
2022/12/20 13:36:17;;;;;;;1.85;1.60;;;;;;;;;;6270841;22;20069;-64
2022/12/20 13:39:03;;;;;;;2.65;2.10;;;;;;;;;;6269894;22;20098;-64
2022/12/20 13:41:38;;;;;;;5.22;1.90;;;;;;;;;;6270617;22;20098;-62
2022/12/20 13:44:08;;;;;;;3.80;2.20;;;;;;;;;;6270468;22;20767;-62
2022/12/20 13:46:44;;;;;;;2.10;1.80;;;;;;;;;;6270754;22;20031;-62
2022/12/20 13:49:12;;;;;;;3.03;1.98;;;;;;;;;;6270584;22;20107;-61
2022/12/20 13:51:39;;;;;;;3.72;2.42;;;;;;;;;;6270870;22;20548;-62
2022/12/20 13:54:34;;;;;;;3.40;2.42;;;;;;;;;;6271720;22;20043;-62
2022/12/20 13:57:09;;;;;;;2.50;2.17;;;;;;;;;;6269381;22;20024;-62
2022/12/20 13:59:52;;;;;;;4.15;2.80;;;;;;;;;;6270441;22;20647;-62
2022/12/20 14:02:21;;;;;;;3.60;2.60;;;;;;;;;;6270764;22;20472;-47
2022/12/20 14:05:02;;;;;;;3.88;2.65;;;;;;;;;;6269992;22;20102;-47
2022/12/20 14:07:31;;;;;;;2.80;2.35;;;;;;;;;;6270000;22;20051;-48
2022/12/20 14:10:26;;;;;;;3.05;2.70;;;;;;;;;;6269810;22;20218;-49
2022/12/20 14:12:54;;;;;;;4.00;2.53;;;;;;;;;;6269666;22;20034;-51
2022/12/20 14:15:27;;;;;;;3.75;2.90;;;;;;;;;;6270873;22;20024;-52
2022/12/20 14:17:55;;;;;;;3.17;2.47;;;;;;;;;;6270570;22;20099;-61
2022/12/20 14:20:29;;;;;;;3.40;2.50;;;;;;;;;;6269830;22;20357;-64
2022/12/20 14:23:05;;;;;;;3.08;2.67;;;;;;;;;;6270862;22;20063;-50
2022/12/20 14:25:43;;;;;;;4.68;2.50;;;;;;;;;;6270468;22;20016;-55
2022/12/20 14:28:27;;;;;;;2.70;2.10;;;;;;;;;;6270188;22;20023;-50
2022/12/20 14:30:54;;;;;;;3.90;2.83;;;;;;;;;;6270179;22;20128;-52
2022/12/20 14:33:34;;;;;;;3.17;2.50;;;;;;;;;;6270714;22;20038;-53
2022/12/20 14:36:09;;;;;;;2.35;2.10;;;;;;;;;;6269783;22;20457;-52
2022/12/20 14:38:43;;;;;;;3.10;2.55;;;;;;;;;;6271327;22;20058;-55
2022/12/20 14:41:29;;;;;;;2.78;1.95;;;;;;;;;;6269772;22;20598;-62
2022/12/20 14:44:16;;;;;;;2.60;2.22;;;;;;;;;;6269015;22;20027;-62
2022/12/20 14:46:47;;;;;;;2.83;2.40;;;;;;;;;;6270645;22;20020;-63
2022/12/20 14:49:21;;;;;;;2.40;2.00;;;;;;;;;;6270189;22;20023;-63
2022/12/20 14:51:48;;;;;;;2.35;2.15;;;;;;;;;;6270402;22;20099;-62
2022/12/20 14:54:25;;;;;;;2.42;1.90;;;;;;;;;;6270104;22;20024;-63
2022/12/20 14:57:21;;;;;;;2.30;2.00;;;;;;;;;;6270371;22;20034;-62
2022/12/20 15:00:01;;;;;;;2.53;1.80;;;;;;;;;;6269555;22;20045;-47
2022/12/20 15:02:38;;;;;;;2.20;2.00;;;;;;;;;;6270360;22;20099;-52
2022/12/20 15:05:31;;;;;;;2.63;1.88;;;;;;;;;;6268949;22;20020;-48
2022/12/20 15:08:18;;;;;;;2.30;1.90;;;;;;;;;;6243661;22;20103;-52
2022/12/20 15:11:05;;;;;;;2.67;2.00;;;;;;;;;;6270628;22;20035;-50
2022/12/20 15:13:33;;;;;;;2.85;2.20;;;;;;;;;;6270563;22;20116;-61
2022/12/20 15:16:21;;;;;;;2.67;2.10;;;;;;;;;;6269163;22;20390;-48
2022/12/20 15:19:00;;;;;;;2.72;2.20;;;;;;;;;;6268590;22;20027;-47
2022/12/20 15:21:42;;;;;;;2.85;2.10;;;;;;;;;;6270795;22;20050;-48
2022/12/20 15:24:20;;;;;;;2.20;2.00;;;;;;;;;;6270012;22;20034;-48
2022/12/20 15:26:55;;;;;;;2.10;1.90;;;;;;;;;;6268681;22;20026;-47
2022/12/20 15:29:22;;;;;;;;;;;;;;;;;;6269387;22;20560;-49